createdAt,value
2023-05-14T00:01:33.521Z,97812.27
2023-05-14T00:04:01.404Z,97809.02
2023-05-14T00:06:29.466Z,97805.55
2023-05-14T00:08:57.547Z,97802.67
2023-05-14T00:11:25.690Z,97801.54
2023-05-14T00:13:53.490Z,97803.66
2023-05-14T00:16:21.413Z,97805.73
2023-05-14T00:18:49.283Z,97809.16
2023-05-14T00:21:17.497Z,97811.93
2023-05-14T00:23:45.361Z,97812.02
2023-05-14T00:26:13.181Z,97811.83
2023-05-14T00:28:41.006Z,97806.16
2023-05-14T00:31:08.831Z,97798.92
2023-05-14T00:33:36.838Z,97797.95
2023-05-14T00:36:04.793Z,97798.46
2023-05-14T00:38:32.581Z,97799.05
2023-05-14T00:41:00.350Z,97798.56
2023-05-14T00:43:28.556Z,97797.42
2023-05-14T00:45:56.519Z,97798.84
2023-05-14T00:48:24.753Z,97800.83
2023-05-14T00:50:52.846Z,97798.52
2023-05-14T00:53:21.252Z,97796.41
2023-05-14T00:55:50.547Z,97789.41
2023-05-14T00:58:19.614Z,97788.67
2023-05-14T01:00:47.539Z,97785.97
2023-05-14T01:03:15.995Z,97788.52
2023-05-14T01:06:01.131Z,97794.14
2023-05-14T01:08:57.314Z,97796.18
2023-05-14T01:11:54.536Z,97790.58
2023-05-14T01:14:41.205Z,97789.98
2023-05-14T01:17:12.171Z,97794.61
2023-05-14T01:19:42.465Z,97799.89
2023-05-14T01:22:11.786Z,97805.04
2023-05-14T01:24:40.560Z,97804.61
2023-05-14T01:27:23.634Z,97798.75
2023-05-14T01:30:09.933Z,97797.20
2023-05-14T01:32:40.454Z,97793.59
2023-05-14T01:35:09.588Z,97790.77
2023-05-14T01:37:40.154Z,97788.50
2023-05-14T01:40:09.788Z,97789.45
2023-05-14T01:42:38.479Z,97792.83
2023-05-14T01:45:06.895Z,97791.80
2023-05-14T01:47:34.745Z,97790.30
2023-05-14T01:50:02.608Z,97785.85
2023-05-14T01:52:30.583Z,97780.98
2023-05-14T01:55:00.031Z,97782.05
2023-05-14T01:57:28.105Z,97782.89
2023-05-14T01:59:56.122Z,97781.76
2023-05-14T02:02:23.936Z,97773.63
2023-05-14T02:04:52.293Z,97774.34
2023-05-14T02:07:20.203Z,97772.55
2023-05-14T02:09:48.183Z,97776.15
2023-05-14T02:12:16.062Z,97781.21
2023-05-14T02:14:43.856Z,97778.73
2023-05-14T02:17:11.829Z,97772.26
2023-05-14T02:19:39.744Z,97769.73
2023-05-14T02:22:07.602Z,97774.02
2023-05-14T02:24:35.423Z,97770.63
2023-05-14T02:27:03.496Z,97766.16
2023-05-14T02:29:31.278Z,97766.23
2023-05-14T02:31:59.224Z,97769.02
2023-05-14T02:34:27.002Z,97767.30
2023-05-14T02:36:54.892Z,97768.22
2023-05-14T02:39:22.722Z,97769.09
2023-05-14T02:41:50.559Z,97775.45
2023-05-14T02:44:18.494Z,97772.85
2023-05-14T02:46:46.698Z,97772.54
2023-05-14T02:49:14.685Z,97775.34
2023-05-14T02:51:42.600Z,97777.19
2023-05-14T02:54:10.437Z,97774.65
2023-05-14T02:56:38.398Z,97770.02
2023-05-14T02:59:06.294Z,97767.75
2023-05-14T03:01:34.410Z,97766.48
2023-05-14T03:04:02.692Z,97766.11
2023-05-14T03:06:31.498Z,97768.27
2023-05-14T03:08:59.360Z,97767.51
2023-05-14T03:11:27.682Z,97771.15
2023-05-14T03:13:55.460Z,97771.81
2023-05-14T03:16:23.453Z,97773.48
2023-05-14T03:18:51.421Z,97773.49
2023-05-14T03:21:19.408Z,97772.92
2023-05-14T03:23:47.267Z,97774.45
2023-05-14T03:26:15.358Z,97778.20
2023-05-14T03:28:44.573Z,97779.52
2023-05-14T03:31:12.409Z,97774.96
2023-05-14T03:33:40.900Z,97774.86
2023-05-14T03:36:09.128Z,97771.61
2023-05-14T03:38:36.931Z,97769.04
2023-05-14T03:41:04.750Z,97770.07
2023-05-14T03:43:32.562Z,97773.16
2023-05-14T03:46:00.662Z,97771.09
2023-05-14T03:48:28.722Z,97768.95
2023-05-14T03:50:57.358Z,97770.64
2023-05-14T03:53:25.283Z,97767.88
2023-05-14T03:55:53.260Z,97769.98
2023-05-14T03:58:21.067Z,97773.20
2023-05-14T04:00:48.978Z,97774.69
2023-05-14T04:03:17.141Z,97775.08
2023-05-14T04:05:44.990Z,97777.64
2023-05-14T04:08:12.740Z,97779.02
2023-05-14T04:10:42.550Z,97778.88
2023-05-14T04:13:10.494Z,97781.17
2023-05-14T04:15:39.507Z,97781.69
2023-05-14T04:18:07.436Z,97781.83
2023-05-14T04:20:35.596Z,97783.68
2023-05-14T04:23:03.734Z,97782.21
2023-05-14T04:25:31.760Z,97786.02
2023-05-14T04:27:59.577Z,97787.27
2023-05-14T04:30:27.508Z,97788.68
2023-05-14T04:32:55.846Z,97785.58
2023-05-14T04:35:24.974Z,97783.73
2023-05-14T04:37:53.126Z,97784.52
2023-05-14T04:40:21.065Z,97784.23
2023-05-14T04:42:49.100Z,97785.73
2023-05-14T04:45:17.070Z,97788.30
2023-05-14T04:47:46.051Z,97786.14
2023-05-14T04:50:14.427Z,97781.29
2023-05-14T04:52:42.397Z,97783.01
2023-05-14T04:55:10.620Z,97779.91
2023-05-14T04:57:38.524Z,97779.57
2023-05-14T05:00:07.959Z,97776.86
2023-05-14T05:02:36.260Z,97772.23
2023-05-14T05:05:04.678Z,97764.91
2023-05-14T05:07:32.602Z,97761.80
2023-05-14T05:10:00.661Z,97758.08
2023-05-14T05:12:30.363Z,97757.14
2023-05-14T05:14:58.247Z,97755.34
2023-05-14T05:17:26.196Z,97753.34
2023-05-14T05:19:54.163Z,97751.89
2023-05-14T05:22:22.118Z,97748.36
2023-05-14T05:24:50.217Z,97744.52
2023-05-14T05:27:18.123Z,97748.50
2023-05-14T05:29:46.425Z,97749.50
2023-05-14T05:32:14.365Z,97748.69
2023-05-14T05:34:42.429Z,97741.10
2023-05-14T05:37:12.826Z,97736.73
2023-05-14T05:39:40.822Z,97735.14
2023-05-14T05:42:08.887Z,97730.61
2023-05-14T05:44:36.765Z,97731.73
2023-05-14T05:47:04.930Z,97733.33
2023-05-14T05:49:32.960Z,97724.67
2023-05-14T05:52:00.871Z,97722.50
2023-05-14T05:54:28.677Z,97721.29
2023-05-14T05:56:56.555Z,97722.32
2023-05-14T05:59:25.122Z,97722.31
2023-05-14T06:01:53.163Z,97718.27
2023-05-14T06:04:21.039Z,97713.20
2023-05-14T06:06:49.064Z,97711.29
2023-05-14T06:09:16.937Z,97711.98
2023-05-14T06:11:44.827Z,97712.38
2023-05-14T06:14:12.593Z,97710.21
2023-05-14T06:16:40.474Z,97708.27
2023-05-14T06:19:08.625Z,97707.60
2023-05-14T06:21:36.588Z,97709.75
2023-05-14T06:24:04.759Z,97708.98
2023-05-14T06:26:32.593Z,97707.77
2023-05-14T06:29:00.496Z,97709.20
2023-05-14T06:31:28.428Z,97708.91
2023-05-14T06:33:56.398Z,97704.19
2023-05-14T06:36:31.241Z,97701.52
2023-05-14T06:39:05.815Z,97700.77
2023-05-14T06:41:33.669Z,97700.64
2023-05-14T06:44:02.756Z,97704.60
2023-05-14T06:46:30.996Z,97703.45
2023-05-14T06:48:59.651Z,97699.73
2023-05-14T06:51:27.826Z,97694.21
2023-05-14T06:53:56.226Z,97694.51
2023-05-14T06:56:26.610Z,97692.77
2023-05-14T06:58:54.417Z,97691.09
2023-05-14T07:01:23.240Z,97689.38
2023-05-14T07:03:51.267Z,97684.59
2023-05-14T07:06:19.204Z,97681.66
2023-05-14T07:08:47.061Z,97681.73
2023-05-14T07:11:15.526Z,97676.86
2023-05-14T07:13:43.448Z,97672.16
2023-05-14T07:16:11.434Z,97670.94
2023-05-14T07:18:39.539Z,97670.14
2023-05-14T07:21:07.472Z,97666.50
2023-05-14T07:23:36.693Z,97664.43
2023-05-14T07:26:08.159Z,97659.10
2023-05-14T07:28:36.271Z,97658.11
2023-05-14T07:31:09.177Z,97661.75
2023-05-14T07:33:37.285Z,97663.48
2023-05-14T07:36:05.455Z,97663.77
2023-05-14T07:38:33.343Z,97661.22
2023-05-14T07:41:01.247Z,97660.20
2023-05-14T07:43:29.661Z,97659.38
2023-05-14T07:45:57.650Z,97662.11
2023-05-14T07:48:25.606Z,97667.80
2023-05-14T07:50:53.965Z,97669.59
2023-05-14T07:53:22.070Z,97669.66
2023-05-14T07:55:49.885Z,97668.26
2023-05-14T07:58:17.868Z,97666.20
2023-05-14T08:00:45.761Z,97660.96
2023-05-14T08:03:13.868Z,97660.04
2023-05-14T08:05:41.965Z,97656.89
2023-05-14T08:08:09.820Z,97660.30
2023-05-14T08:10:37.866Z,97661.85
2023-05-14T08:13:05.970Z,97659.45
2023-05-14T08:15:34.498Z,97650.20
2023-05-14T08:18:03.781Z,97646.51
2023-05-14T08:20:31.975Z,97642.41
2023-05-14T08:22:59.874Z,97635.39
2023-05-14T08:25:27.805Z,97633.92
2023-05-14T08:27:55.803Z,97629.59
2023-05-14T08:30:23.786Z,97616.46
2023-05-14T08:32:52.977Z,97610.36
2023-05-14T08:35:20.977Z,97611.69
2023-05-14T08:37:50.712Z,97617.91
2023-05-14T08:40:18.782Z,97622.17
2023-05-14T08:42:48.581Z,97617.98
2023-05-14T08:45:20.433Z,97615.08
2023-05-14T08:47:50.978Z,97616.61
2023-05-14T08:50:23.512Z,97612.19
2023-05-14T08:52:53.063Z,97606.67
2023-05-14T08:55:22.456Z,97602.55
2023-05-14T08:57:50.433Z,97597.83
2023-05-14T09:00:18.734Z,97596.67
2023-05-14T09:02:47.947Z,97595.61
2023-05-14T09:05:18.839Z,97594.06
2023-05-14T09:07:46.993Z,97596.31
2023-05-14T09:10:16.175Z,97591.65
2023-05-14T09:12:44.662Z,97588.05
2023-05-14T09:15:13.131Z,97583.38
2023-05-14T09:17:41.451Z,97584.03
2023-05-14T09:20:12.495Z,97583.04
2023-05-14T09:22:40.864Z,97581.70
2023-05-14T09:25:12.037Z,97581.69
2023-05-14T09:27:40.150Z,97578.11
2023-05-14T09:30:12.773Z,97574.37
2023-05-14T09:32:46.141Z,97567.97
2023-05-14T09:35:21.967Z,97569.22
2023-05-14T09:37:55.030Z,97568.28
2023-05-14T09:40:25.581Z,97570.31
2023-05-14T09:42:54.444Z,97573.52
2023-05-14T09:45:22.437Z,97573.05
2023-05-14T09:47:50.427Z,97569.95
2023-05-14T09:50:18.585Z,97570.14
2023-05-14T09:52:46.536Z,97567.05
2023-05-14T09:55:15.074Z,97567.44
2023-05-14T09:57:42.900Z,97568.29
2023-05-14T10:00:12.859Z,97565.21
2023-05-14T10:02:45.850Z,97562.88
2023-05-14T10:05:16.082Z,97558.34
2023-05-14T10:07:48.474Z,97554.70
2023-05-14T10:10:20.258Z,97549.91
2023-05-14T10:12:55.319Z,97544.90
2023-05-14T10:15:34.114Z,97540.37
2023-05-14T10:18:10.356Z,97540.50
2023-05-14T10:20:40.223Z,97533.16
2023-05-14T10:23:08.187Z,97525.59
2023-05-14T10:25:37.512Z,97520.55
2023-05-14T10:28:06.323Z,97521.39
2023-05-14T10:30:34.218Z,97523.55
2023-05-14T10:33:08.965Z,97513.48
2023-05-14T10:36:03.131Z,97506.59
2023-05-14T10:38:36.225Z,97509.47
2023-05-14T10:41:10.550Z,97509.00
2023-05-14T10:43:41.078Z,97506.91
2023-05-14T10:46:12.724Z,97500.52
2023-05-14T10:48:45.813Z,97495.09
2023-05-14T10:51:17.598Z,97495.04
2023-05-14T10:53:45.661Z,97488.55
2023-05-14T10:56:14.449Z,97486.74
2023-05-14T10:58:44.243Z,97482.63
2023-05-14T11:01:16.211Z,97477.80
2023-05-14T11:03:46.969Z,97475.05
2023-05-14T11:06:16.406Z,97469.45
2023-05-14T11:08:46.477Z,97464.86
2023-05-14T11:11:14.677Z,97467.05
2023-05-14T11:13:42.956Z,97472.28
2023-05-14T11:16:22.633Z,97466.56
2023-05-14T11:19:03.501Z,97465.75
2023-05-14T11:21:32.886Z,97463.40
2023-05-14T11:24:01.402Z,97461.02
2023-05-14T11:26:29.472Z,97456.88
2023-05-14T11:28:57.512Z,97454.84
2023-05-14T11:31:25.683Z,97453.60
2023-05-14T11:33:54.347Z,97447.25
2023-05-14T11:36:22.177Z,97444.96
2023-05-14T11:38:52.325Z,97447.09
2023-05-14T11:41:23.146Z,97445.06
2023-05-14T11:43:51.558Z,97447.58
2023-05-14T11:46:19.731Z,97444.70
2023-05-14T11:48:48.261Z,97440.27
2023-05-14T11:51:16.234Z,97439.32
2023-05-14T11:53:45.678Z,97438.89
2023-05-14T11:56:13.603Z,97438.38
2023-05-14T11:58:41.648Z,97439.31
2023-05-14T12:01:13.818Z,97440.69
2023-05-14T12:03:42.388Z,97443.09
2023-05-14T12:06:10.526Z,97440.88
2023-05-14T12:08:38.462Z,97437.05
2023-05-14T12:11:07.079Z,97431.09
2023-05-14T12:13:36.722Z,97427.56
2023-05-14T12:16:05.489Z,97427.67
2023-05-14T12:18:33.733Z,97427.52
2023-05-14T12:21:08.467Z,97429.55
2023-05-14T12:23:39.204Z,97433.14
2023-05-14T12:26:09.070Z,97428.52
2023-05-14T12:28:43.389Z,97425.40
2023-05-14T12:31:11.582Z,97429.40
2023-05-14T12:33:39.676Z,97432.62
2023-05-14T12:36:20.592Z,97432.69
2023-05-14T12:38:50.999Z,97430.34
2023-05-14T12:41:19.035Z,97425.31
2023-05-14T12:43:49.659Z,97427.60
2023-05-14T12:46:17.701Z,97425.16
2023-05-14T12:48:46.456Z,97425.08
2023-05-14T12:51:14.821Z,97419.38
2023-05-14T12:53:42.816Z,97414.13
2023-05-14T12:56:12.398Z,97414.04
2023-05-14T12:58:40.725Z,97415.98
2023-05-14T13:01:08.651Z,97427.06
2023-05-14T13:03:36.482Z,97428.71
2023-05-14T13:06:04.738Z,97428.91
2023-05-14T13:08:32.598Z,97425.05
2023-05-14T13:11:00.426Z,97423.55
2023-05-14T13:13:28.393Z,97423.10
2023-05-14T13:15:56.310Z,97421.22
2023-05-14T13:18:25.887Z,97422.95
2023-05-14T13:20:54.402Z,97417.29
2023-05-14T13:23:22.302Z,97410.06
2023-05-14T13:25:50.747Z,97404.56
2023-05-14T13:28:18.765Z,97401.20
2023-05-14T13:31:13.226Z,97398.15
2023-05-14T13:33:43.640Z,97391.12
2023-05-14T13:36:14.403Z,97385.53
2023-05-14T13:38:42.374Z,97382.73
2023-05-14T13:41:10.330Z,97378.36
2023-05-14T13:43:38.184Z,97371.60
2023-05-14T13:46:06.855Z,97367.41
2023-05-14T13:48:37.165Z,97366.43
2023-05-14T13:51:05.072Z,97360.58
2023-05-14T13:53:32.941Z,97347.30
2023-05-14T13:56:01.883Z,97342.51
2023-05-14T13:58:30.454Z,97337.17
2023-05-14T14:00:58.373Z,97330.23
2023-05-14T14:03:26.772Z,97326.88
2023-05-14T14:05:54.742Z,97327.34
2023-05-14T14:08:24.337Z,97319.44
2023-05-14T14:10:54.682Z,97310.97
2023-05-14T14:13:22.982Z,97303.34
2023-05-14T14:15:51.346Z,97293.36
2023-05-14T14:18:19.184Z,97290.14
2023-05-14T14:20:47.082Z,97290.48
2023-05-14T14:23:17.409Z,97288.88
2023-05-14T14:25:45.381Z,97285.54
2023-05-14T14:28:13.809Z,97278.52
2023-05-14T14:30:41.825Z,97270.45
2023-05-14T14:33:09.781Z,97274.52
2023-05-14T14:35:37.813Z,97278.16
2023-05-14T14:38:05.724Z,97277.56
2023-05-14T14:40:34.536Z,97277.52
2023-05-14T14:43:02.503Z,97279.94
2023-05-14T14:45:30.748Z,97281.84
2023-05-14T14:48:26.356Z,97282.60
2023-05-14T14:50:55.763Z,97282.08
2023-05-14T14:53:24.626Z,97283.11
2023-05-14T14:55:52.905Z,97281.96
2023-05-14T14:58:21.004Z,97278.03
2023-05-14T15:00:52.547Z,97280.80
2023-05-14T15:03:21.427Z,97286.79
2023-05-14T15:05:49.585Z,97285.88
2023-05-14T15:08:17.816Z,97286.83
2023-05-14T15:10:48.594Z,97283.42
2023-05-14T15:13:16.611Z,97278.05
2023-05-14T15:15:46.609Z,97264.45
2023-05-14T15:18:14.742Z,97249.26
2023-05-14T15:20:42.751Z,97242.34
2023-05-14T15:23:11.691Z,97240.14
2023-05-14T15:25:39.592Z,97245.42
2023-05-14T15:28:10.353Z,97245.95
2023-05-14T15:30:38.199Z,97255.68
2023-05-14T15:33:08.890Z,97260.22
2023-05-14T15:35:38.107Z,97256.08
2023-05-14T15:38:07.003Z,97251.31
2023-05-14T15:40:35.286Z,97244.05
2023-05-14T15:43:03.248Z,97235.77
2023-05-14T15:45:31.046Z,97227.80
2023-05-14T15:47:58.888Z,97229.98
2023-05-14T15:50:27.399Z,97240.66
2023-05-14T15:52:55.376Z,97243.80
2023-05-14T15:55:23.261Z,97241.04
2023-05-14T15:57:51.240Z,97237.48
2023-05-14T16:00:19.638Z,97231.58
2023-05-14T16:02:47.650Z,97217.37
2023-05-14T16:05:16.214Z,97206.96
2023-05-14T16:07:44.138Z,97204.91
2023-05-14T16:10:11.993Z,97208.57
2023-05-14T16:12:39.828Z,97218.03
2023-05-14T16:15:08.591Z,97223.49
2023-05-14T16:17:39.570Z,97225.41
2023-05-14T16:20:07.999Z,97224.60
2023-05-14T16:22:36.561Z,97224.08
2023-05-14T16:25:04.990Z,97221.38
2023-05-14T16:27:33.007Z,97219.83
2023-05-14T16:30:00.793Z,97217.98
2023-05-14T16:32:28.912Z,97216.14
2023-05-14T16:34:56.883Z,97216.96
2023-05-14T16:37:24.914Z,97222.39
2023-05-14T16:39:53.538Z,97223.95
2023-05-14T16:42:21.725Z,97220.09
2023-05-14T16:44:49.703Z,97221.61
2023-05-14T16:47:17.555Z,97232.56
2023-05-14T16:49:45.427Z,97233.13
2023-05-14T16:52:13.309Z,97233.46
2023-05-14T16:54:41.153Z,97236.36
2023-05-14T16:57:10.991Z,97240.43
2023-05-14T16:59:39.880Z,97232.40
2023-05-14T17:02:08.158Z,97228.73
2023-05-14T17:04:38.790Z,97227.12
2023-05-14T17:07:06.928Z,97229.36
2023-05-14T17:09:34.929Z,97224.77
2023-05-14T17:12:02.863Z,97219.38
2023-05-14T17:14:31.739Z,97213.89
2023-05-14T17:17:00.061Z,97214.66
2023-05-14T17:19:28.098Z,97215.21
2023-05-14T17:21:56.000Z,97218.21
2023-05-14T17:24:23.895Z,97216.59
2023-05-14T17:26:51.832Z,97213.58
2023-05-14T17:29:19.774Z,97210.55
2023-05-14T17:31:48.497Z,97201.80
2023-05-14T17:34:17.858Z,97196.25
2023-05-14T17:36:45.938Z,97195.88
2023-05-14T17:39:13.718Z,97188.19
2023-05-14T17:41:42.142Z,97192.85
2023-05-14T17:44:12.101Z,97194.86
2023-05-14T17:46:41.933Z,97190.98
2023-05-14T17:49:09.909Z,97188.31
2023-05-14T17:51:38.509Z,97186.34
2023-05-14T17:54:06.389Z,97190.88
2023-05-14T17:56:34.391Z,97197.36
2023-05-14T17:59:02.328Z,97202.91
2023-05-14T18:01:30.913Z,97206.28
2023-05-14T18:03:58.900Z,97211.35
2023-05-14T18:06:26.877Z,97213.15
2023-05-14T18:08:54.784Z,97214.96
2023-05-14T18:11:22.653Z,97210.73
2023-05-14T18:13:50.679Z,97206.14
2023-05-14T18:16:18.534Z,97207.54
2023-05-14T18:18:46.715Z,97211.45
2023-05-14T18:21:14.685Z,97209.76
2023-05-14T18:23:42.767Z,97209.73
2023-05-14T18:26:10.845Z,97205.60
2023-05-14T18:28:38.795Z,97204.14
2023-05-14T18:31:08.271Z,97208.84
2023-05-14T18:33:36.125Z,97209.44
2023-05-14T18:36:04.383Z,97207.02
2023-05-14T18:38:32.292Z,97211.81
2023-05-14T18:41:00.121Z,97216.01
2023-05-14T18:43:28.121Z,97213.15
2023-05-14T18:45:56.012Z,97215.39
2023-05-14T18:48:24.058Z,97213.83
2023-05-14T18:50:51.967Z,97212.86
2023-05-14T18:53:19.789Z,97209.22
2023-05-14T18:55:47.572Z,97198.61
2023-05-14T18:58:16.580Z,97197.11
2023-05-14T19:00:44.694Z,97192.16
2023-05-14T19:03:12.561Z,97193.29
2023-05-14T19:05:40.418Z,97197.31
2023-05-14T19:08:08.375Z,97199.63
2023-05-14T19:10:36.253Z,97197.14
2023-05-14T19:13:04.100Z,97198.23
2023-05-14T19:15:32.412Z,97190.88
2023-05-14T19:18:01.421Z,97186.06
2023-05-14T19:20:29.361Z,97180.86
2023-05-14T19:22:57.182Z,97179.45
2023-05-14T19:25:25.679Z,97179.06
2023-05-14T19:27:55.341Z,97177.39
2023-05-14T19:30:23.467Z,97178.85
2023-05-14T19:32:51.364Z,97178.74
2023-05-14T19:35:19.425Z,97174.70
2023-05-14T19:37:47.361Z,97171.69
2023-05-14T19:40:15.416Z,97169.41
2023-05-14T19:42:43.722Z,97163.43
2023-05-14T19:45:11.764Z,97156.48
2023-05-14T19:47:39.820Z,97155.08
2023-05-14T19:50:08.582Z,97161.55
2023-05-14T19:52:36.467Z,97162.33
2023-05-14T19:55:04.951Z,97169.02
2023-05-14T19:57:32.877Z,97171.98
2023-05-14T20:00:00.830Z,97163.69
2023-05-14T20:02:29.358Z,97153.88
2023-05-14T20:04:58.006Z,97146.52
2023-05-14T20:07:26.869Z,97138.55
2023-05-14T20:09:54.657Z,97136.98
2023-05-14T20:12:25.324Z,97145.00
2023-05-14T20:14:54.064Z,97140.95
2023-05-14T20:17:22.191Z,97134.86
2023-05-14T20:19:50.260Z,97131.55
2023-05-14T20:22:21.448Z,97125.02
2023-05-14T20:24:49.332Z,97121.58
2023-05-14T20:27:17.195Z,97112.51
2023-05-14T20:29:46.723Z,97104.29
2023-05-14T20:32:15.791Z,97106.62
2023-05-14T20:34:43.570Z,97105.84
2023-05-14T20:37:11.954Z,97106.45
2023-05-14T20:39:40.462Z,97110.16
2023-05-14T20:42:08.385Z,97110.96
2023-05-14T20:44:36.165Z,97109.26
2023-05-14T20:47:04.510Z,97115.58
2023-05-14T20:49:32.330Z,97115.74
2023-05-14T20:52:00.227Z,97108.70
2023-05-14T20:54:32.288Z,97098.67
2023-05-14T20:57:00.261Z,97092.21
2023-05-14T20:59:28.209Z,97093.44
2023-05-14T21:01:56.289Z,97091.80
2023-05-14T21:04:24.334Z,97097.35
2023-05-14T21:06:52.395Z,97108.39
2023-05-14T21:09:23.902Z,97108.33
2023-05-14T21:11:51.706Z,97100.35
2023-05-14T21:14:19.559Z,97095.07
2023-05-14T21:16:48.545Z,97095.16
2023-05-14T21:19:16.763Z,97099.69
2023-05-14T21:21:44.776Z,97108.02
2023-05-14T21:24:12.558Z,97099.94
2023-05-14T21:26:41.427Z,97094.70
2023-05-14T21:29:09.290Z,97087.53
2023-05-14T21:31:37.264Z,97075.84
2023-05-14T21:34:05.197Z,97073.53
2023-05-14T21:36:33.124Z,97078.93
2023-05-14T21:39:01.037Z,97093.69
2023-05-14T21:41:30.404Z,97102.84
2023-05-14T21:43:58.245Z,97103.08
2023-05-14T21:46:26.169Z,97110.55
2023-05-14T21:48:54.072Z,97106.23
2023-05-14T21:51:22.430Z,97100.29
2023-05-14T21:53:50.356Z,97085.30
2023-05-14T21:56:18.376Z,97083.97
2023-05-14T21:58:46.150Z,97090.68
2023-05-14T22:01:14.011Z,97091.90
2023-05-14T22:03:42.085Z,97090.44
2023-05-14T22:06:10.308Z,97091.20
2023-05-14T22:08:38.134Z,97079.61
2023-05-14T22:11:05.949Z,97068.31
2023-05-14T22:13:35.406Z,97069.96
2023-05-14T22:16:12.183Z,97067.98
2023-05-14T22:18:41.711Z,97074.57
2023-05-14T22:21:09.801Z,97071.14
2023-05-14T22:23:37.603Z,97071.15
2023-05-14T22:26:05.688Z,97065.11
2023-05-14T22:28:33.567Z,97066.03
2023-05-14T22:31:01.662Z,97066.64
2023-05-14T22:33:30.000Z,97069.36
2023-05-14T22:35:57.846Z,97069.21
2023-05-14T22:38:25.757Z,97074.46
2023-05-14T22:40:53.653Z,97070.20
2023-05-14T22:43:21.414Z,97062.54
2023-05-14T22:45:49.699Z,97053.04
2023-05-14T22:48:17.952Z,97051.40
2023-05-14T22:50:45.916Z,97054.04
2023-05-14T22:53:13.745Z,97060.80
2023-05-14T22:55:41.628Z,97060.70
2023-05-14T22:58:09.443Z,97060.71
2023-05-14T23:00:37.408Z,97057.69
2023-05-14T23:03:05.448Z,97051.38
2023-05-14T23:05:33.458Z,97049.70
2023-05-14T23:08:01.565Z,97048.23
2023-05-14T23:10:30.026Z,97042.63
2023-05-14T23:12:57.995Z,97032.17
2023-05-14T23:15:26.064Z,97027.48
2023-05-14T23:17:54.338Z,97018.02
2023-05-14T23:20:22.238Z,97017.88
2023-05-14T23:22:50.024Z,97016.80
2023-05-14T23:25:17.921Z,97014.30
2023-05-14T23:27:45.890Z,97014.03
2023-05-14T23:30:13.868Z,97009.76
2023-05-14T23:32:41.845Z,97014.41
2023-05-14T23:35:10.379Z,97015.53
2023-05-14T23:37:42.652Z,97011.56
2023-05-14T23:40:11.117Z,97008.27
2023-05-14T23:42:38.922Z,97003.89
2023-05-14T23:45:08.408Z,97001.10
2023-05-14T23:47:36.744Z,96994.83
2023-05-14T23:50:05.094Z,96989.81
2023-05-14T23:52:33.114Z,96988.66
2023-05-14T23:55:01.643Z,96981.27
2023-05-14T23:57:29.730Z,96982.42
2023-05-14T23:59:57.596Z,96983.40
